Погода Джамалпурна 2 недели

Дакка, Бангладеш

04 - 17 февраля
  • 04февраля
    Сегодня
    +12°
    +26°
    Ясно и безоблачно
    ВремяПогодаТемператураВлажностьДавлениеВетер, м/сВероятность осадков
    00:00Ясно и безоблачно+15°C82 %758 мм2.4 м/с2 %
    03:00Ясно и безоблачно+15°C92 %758 мм1.9 м/с2 %
    06:00Ясно и безоблачно+14°C96 %758 мм1.7 м/с2 %
    09:00Ясно и безоблачно+17°C82 %759 мм1.8 м/с2 %
    12:00Ясно и безоблачно+24°C60 %758 мм1.8 м/с2 %
    15:00Ясно и безоблачно+25°C52 %755 мм2.0 м/с2 %
    18:00Ясно и безоблачно+21°C68 %756 мм2.1 м/с2 %
    21:00Ясно и безоблачно+17°C74 %757 мм2.1 м/с2 %
  • 05февраля
    Воскресенье
    +13°
    +25°
    Ясно и безоблачно
    ВремяПогодаТемператураВлажностьДавлениеВетер, м/сВероятность осадков
    00:00Ясно и безоблачно+19°C90 %758 мм2.1 м/с2 %
    03:00Практически безоблачно+16°C95 %757 мм2.2 м/с2 %
    06:00Ясно и безоблачно+13°C97 %758 мм2.3 м/с2 %
    09:00Ясно и безоблачно+17°C82 %759 мм1.0 м/с2 %
    12:00Практически безоблачно+23°C60 %758 мм1.4 м/с2 %
    15:00Ясно и безоблачно+25°C52 %756 мм2.1 м/с2 %
    18:00Ясно и безоблачно+21°C69 %756 мм2.0 м/с2 %
    21:00Ясно и безоблачно+18°C81 %758 мм2.5 м/с2 %
  • 06февраля
    Понедельник
    +13°
    +26°
    Ясно и безоблачно
    ВремяПогодаТемператураВлажностьДавлениеВетер, м/сВероятность осадков
    00:00Ясно и безоблачно+19°C89 %758 мм2.1 м/с2 %
    03:00Ясно и безоблачно+15°C93 %757 мм2.3 м/с2 %
    06:00Ясно и безоблачно+15°C96 %758 мм1.2 м/с2 %
    09:00Ясно и безоблачно+17°C81 %759 мм0.9 м/с2 %
    12:00Ясно и безоблачно+23°C53 %758 мм2.2 м/с2 %
    15:00Ясно и безоблачно+26°C44 %755 мм2.4 м/с2 %
    18:00Ясно и безоблачно+21°C58 %755 мм2.1 м/с2 %
    21:00Ясно и безоблачно+17°C67 %756 мм2.5 м/с2 %
  • 07февраля
    Вторник
    +13°
    +27°
    Ясно и безоблачно
    ВремяПогодаТемператураВлажностьДавлениеВетер, м/сВероятность осадков
    00:00Ясно и безоблачно+16°C77 %756 мм2.2 м/с2 %
    03:00Ясно и безоблачно+15°C77 %755 мм2.4 м/с2 %
    06:00Ясно и безоблачно+14°C83 %756 мм2.1 м/с2 %
    09:00Ясно и безоблачно+17°C64 %758 мм1.4 м/с2 %
    12:00Ясно и безоблачно+23°C43 %757 мм1.8 м/с2 %
    15:00Ясно и безоблачно+26°C39 %755 мм3.1 м/с2 %
    18:00Ясно и безоблачно+22°C57 %754 мм1.8 м/с2 %
    21:00Практически безоблачно+18°C67 %756 мм2.2 м/с2 %
  • 08февраля
    Среда
    +14°
    +27°
    Ясно и безоблачно
    ВремяПогодаТемператураВлажностьДавлениеВетер, м/сВероятность осадков
    00:00Облачно с прояснениями+19°C79 %756 мм1.5 м/с2 %
    03:00Ясно и безоблачно+16°C88 %755 мм1.7 м/с2 %
    06:00Ясно и безоблачно+14°C91 %756 мм1.4 м/с2 %
    09:00Ясно и безоблачно+17°C72 %758 мм1.0 м/с2 %
    12:00Ясно и безоблачно+24°C47 %758 мм1.6 м/с2 %
    15:00Ясно и безоблачно+27°C33 %755 мм3.3 м/с2 %
    18:00Ясно и безоблачно+22°C47 %756 мм2.7 м/с2 %
    21:00Ясно и безоблачно+19°C56 %758 мм2.8 м/с2 %
Мы используем cookies
Соглашаюсь